createdAt,value
2017-09-17T00:00:21.258Z,1001.0
2017-09-17T00:01:22.686Z,1001.0
2017-09-17T00:02:24.087Z,1001.0
2017-09-17T00:03:25.485Z,1001.1
2017-09-17T00:04:27.002Z,1001.1
2017-09-17T00:05:28.397Z,1001.2
2017-09-17T00:06:29.880Z,1001.2
2017-09-17T00:07:31.280Z,1001.3
2017-09-17T00:08:32.760Z,1001.3
2017-09-17T00:09:34.158Z,1001.3
2017-09-17T00:10:35.641Z,1001.3
2017-09-17T00:11:37.038Z,1001.4
2017-09-17T00:12:38.522Z,1001.4
2017-09-17T00:13:39.921Z,1001.4
2017-09-17T00:14:41.403Z,1001.5
2017-09-17T00:15:42.801Z,1001.5
2017-09-17T00:16:44.293Z,1001.5
2017-09-17T00:17:45.693Z,1001.6
2017-09-17T00:18:47.162Z,1001.5
2017-09-17T00:19:48.560Z,1001.5
2017-09-17T00:20:49.960Z,1001.6
2017-09-17T00:21:51.382Z,1001.6
2017-09-17T00:22:52.783Z,1001.6
2017-09-17T00:23:54.181Z,1001.7
2017-09-17T00:24:55.600Z,1001.7
2017-09-17T00:25:56.999Z,1001.6
2017-09-17T00:26:58.404Z,1001.6
2017-09-17T00:27:59.861Z,1001.6
2017-09-17T00:29:01.226Z,1001.7
2017-09-17T00:30:02.624Z,1001.6
2017-09-17T00:31:04.141Z,1001.7
2017-09-17T00:32:05.547Z,1001.7
2017-09-17T00:33:07.022Z,1001.7
2017-09-17T00:34:08.421Z,1001.7
2017-09-17T00:35:09.902Z,1001.7
2017-09-17T00:36:11.307Z,1001.8
2017-09-17T00:37:12.818Z,1001.7
2017-09-17T00:38:14.184Z,1001.7
2017-09-17T00:39:15.663Z,1001.7
2017-09-17T00:40:17.066Z,1001.7
2017-09-17T00:41:18.554Z,1001.8
2017-09-17T00:42:19.987Z,1001.8
2017-09-17T00:43:21.425Z,1001.8
2017-09-17T00:44:22.823Z,1001.9
2017-09-17T00:45:24.305Z,1001.9
2017-09-17T00:46:25.706Z,1002.0
2017-09-17T00:47:27.187Z,1002.0
2017-09-17T00:48:28.588Z,1002.0
2017-09-17T00:49:30.067Z,1002.0
2017-09-17T00:50:31.464Z,1002.2
2017-09-17T00:51:32.948Z,1002.1
2017-09-17T00:52:34.347Z,1002.2
2017-09-17T00:53:35.827Z,1002.2
2017-09-17T00:54:37.229Z,1002.2
2017-09-17T00:55:38.629Z,1002.3
2017-09-17T00:56:40.046Z,1002.3
2017-09-17T00:57:41.445Z,1002.3
2017-09-17T00:58:42.844Z,1002.4
2017-09-17T00:59:44.266Z,1002.3
2017-09-17T01:00:45.665Z,1002.4
2017-09-17T01:01:47.069Z,1002.4
2017-09-17T01:02:48.487Z,1002.4
2017-09-17T01:03:49.891Z,1002.4
2017-09-17T01:04:51.392Z,1002.4
2017-09-17T01:05:52.791Z,1002.5
2017-09-17T01:06:54.192Z,1002.4
2017-09-17T01:07:55.692Z,1002.4
2017-09-17T01:08:57.092Z,1002.4
2017-09-17T01:09:58.499Z,1002.4
2017-09-17T01:11:00.038Z,1002.5
2017-09-17T01:12:01.442Z,1002.5
2017-09-17T01:13:02.895Z,1002.5
2017-09-17T01:14:04.296Z,1002.4
2017-09-17T01:15:05.776Z,1002.4
2017-09-17T01:16:07.169Z,1002.4
2017-09-17T01:17:08.646Z,1002.5
2017-09-17T01:18:10.052Z,1002.4
2017-09-17T01:19:11.529Z,1002.5
2017-09-17T01:20:12.929Z,1002.4
2017-09-17T01:21:14.326Z,1002.4
2017-09-17T01:22:15.728Z,1002.4
2017-09-17T01:23:17.128Z,1002.4
2017-09-17T01:24:18.629Z,1002.4
2017-09-17T01:25:20.033Z,1002.4
2017-09-17T01:26:21.433Z,1002.4
2017-09-17T01:27:22.847Z,1002.4
2017-09-17T01:28:24.247Z,1002.4
2017-09-17T01:29:25.650Z,1002.4
2017-09-17T01:30:27.065Z,1002.4
2017-09-17T01:31:28.470Z,1002.3
2017-09-17T01:32:29.948Z,1002.4
2017-09-17T01:33:31.345Z,1002.3
2017-09-17T01:34:32.828Z,1002.3
2017-09-17T01:35:34.230Z,1002.2
2017-09-17T01:36:35.709Z,1002.2
2017-09-17T01:37:37.110Z,1002.2
2017-09-17T01:38:38.589Z,1002.2
2017-09-17T01:39:39.990Z,1002.2
2017-09-17T01:40:41.474Z,1002.2
2017-09-17T01:41:42.875Z,1002.1
2017-09-17T01:42:44.351Z,1002.2
2017-09-17T01:43:45.751Z,1002.1
2017-09-17T01:44:47.239Z,1002.1
2017-09-17T01:45:48.639Z,1002.1
2017-09-17T01:46:51.135Z,1002.0
2017-09-17T01:47:52.534Z,1002.1
2017-09-17T01:48:54.015Z,1002.0
2017-09-17T01:49:55.414Z,1002.0
2017-09-17T01:50:56.918Z,1002.0
2017-09-17T01:51:58.315Z,1002.0
2017-09-17T01:52:59.777Z,1002.0
2017-09-17T01:54:01.178Z,1002.0
2017-09-17T01:55:02.660Z,1002.0
2017-09-17T01:56:04.063Z,1002.0
2017-09-17T01:57:05.537Z,1002.0
2017-09-17T01:58:06.943Z,1002.0
2017-09-17T01:59:08.420Z,1002.0
2017-09-17T02:00:09.820Z,1002.0
2017-09-17T02:01:11.299Z,1002.0
2017-09-17T02:02:12.696Z,1001.9
2017-09-17T02:03:14.180Z,1001.9
2017-09-17T02:04:15.581Z,1001.9
2017-09-17T02:05:17.076Z,1001.9
2017-09-17T02:06:18.476Z,1001.9
2017-09-17T02:07:19.946Z,1001.8
2017-09-17T02:08:21.343Z,1001.9
2017-09-17T02:09:22.823Z,1001.8
2017-09-17T02:10:24.220Z,1001.9
2017-09-17T02:11:25.702Z,1001.9
2017-09-17T02:12:27.100Z,1001.9
2017-09-17T02:13:28.611Z,1001.8
2017-09-17T02:14:30.012Z,1001.8
2017-09-17T02:15:31.463Z,1001.8
2017-09-17T02:16:32.864Z,1001.8
2017-09-17T02:17:34.346Z,1001.8
2017-09-17T02:18:35.741Z,1001.8
2017-09-17T02:19:37.225Z,1001.8
2017-09-17T02:20:38.649Z,1001.8
2017-09-17T02:21:40.111Z,1001.8
2017-09-17T02:22:41.505Z,1001.8
2017-09-17T02:23:42.902Z,1001.8
2017-09-17T02:24:44.325Z,1001.8
2017-09-17T02:25:45.725Z,1001.8
2017-09-17T02:26:47.126Z,1001.8
2017-09-17T02:27:48.546Z,1001.8
2017-09-17T02:28:49.948Z,1001.8
2017-09-17T02:29:51.352Z,1001.7
2017-09-17T02:30:52.873Z,1001.7
2017-09-17T02:31:54.276Z,1001.8
2017-09-17T02:32:55.673Z,1001.7
2017-09-17T02:33:57.085Z,1001.7
2017-09-17T02:34:58.507Z,1001.7
2017-09-17T02:35:59.911Z,1001.7
2017-09-17T02:37:01.405Z,1001.7
2017-09-17T02:38:02.803Z,1001.7
2017-09-17T02:39:04.198Z,1001.7
2017-09-17T02:40:05.609Z,1001.7
2017-09-17T02:41:07.012Z,1001.7
2017-09-17T02:42:08.501Z,1001.7
2017-09-17T02:43:09.915Z,1001.7
2017-09-17T02:44:11.317Z,1001.7
2017-09-17T02:45:12.830Z,1001.7
2017-09-17T02:46:14.221Z,1001.8
2017-09-17T02:47:15.618Z,1001.7
2017-09-17T02:48:17.047Z,1001.8
2017-09-17T02:49:18.440Z,1001.8
2017-09-17T02:50:19.929Z,1001.8
2017-09-17T02:51:21.324Z,1001.8
2017-09-17T02:52:22.739Z,1001.8
2017-09-17T02:53:24.257Z,1001.9
2017-09-17T02:54:25.656Z,1001.8
2017-09-17T02:55:27.052Z,1001.9
2017-09-17T02:56:28.567Z,1001.9
2017-09-17T02:57:29.966Z,1002.0
2017-09-17T02:58:31.445Z,1002.0
2017-09-17T02:59:32.843Z,1002.0
2017-09-17T03:00:34.329Z,1002.0
2017-09-17T03:01:35.728Z,1002.1
2017-09-17T03:02:37.129Z,1002.1
2017-09-17T03:03:38.545Z,1002.0
2017-09-17T03:04:39.944Z,1002.1
2017-09-17T03:05:41.368Z,1002.1
2017-09-17T03:06:42.866Z,1002.1
2017-09-17T03:07:44.259Z,1002.1
2017-09-17T03:08:45.661Z,1002.1
2017-09-17T03:09:47.085Z,1002.1
2017-09-17T03:10:48.487Z,1002.1
2017-09-17T03:11:49.887Z,1002.1
2017-09-17T03:12:51.299Z,1002.2
2017-09-17T03:13:52.745Z,1002.2
2017-09-17T03:14:54.147Z,1002.2
2017-09-17T03:15:55.625Z,1002.3
2017-09-17T03:16:57.022Z,1002.3
2017-09-17T03:17:58.424Z,1002.4
2017-09-17T03:18:59.843Z,1002.4
2017-09-17T03:20:01.245Z,1002.5
2017-09-17T03:21:02.645Z,1002.5
2017-09-17T03:22:04.064Z,1002.6
2017-09-17T03:23:05.462Z,1002.7
2017-09-17T03:24:06.943Z,1002.8
2017-09-17T03:25:08.340Z,1002.8
2017-09-17T03:26:09.825Z,1002.9
2017-09-17T03:27:11.228Z,1003.0
2017-09-17T03:28:12.704Z,1003.0
2017-09-17T03:29:14.115Z,1003.0
2017-09-17T03:30:15.588Z,1003.1
2017-09-17T03:31:16.984Z,1003.1
2017-09-17T03:32:18.465Z,1003.2
2017-09-17T03:33:19.866Z,1003.2
2017-09-17T03:34:21.348Z,1003.2
2017-09-17T03:35:22.750Z,1003.1
2017-09-17T03:36:24.227Z,1003.1
2017-09-17T03:37:25.626Z,1003.1
2017-09-17T03:38:27.024Z,1003.1
2017-09-17T03:39:28.446Z,1003.1
2017-09-17T03:40:29.845Z,1003.1
2017-09-17T03:41:31.251Z,1003.2
2017-09-17T03:42:32.666Z,1003.3
2017-09-17T03:43:34.064Z,1003.4
2017-09-17T03:44:35.461Z,1003.4
2017-09-17T03:45:36.882Z,1003.4
2017-09-17T03:46:38.283Z,1003.4
2017-09-17T03:47:39.682Z,1003.4
2017-09-17T03:48:41.102Z,1003.4
2017-09-17T03:49:42.506Z,1003.5
2017-09-17T03:50:43.981Z,1003.6
2017-09-17T03:51:45.383Z,1003.7
2017-09-17T03:52:46.868Z,1003.7
2017-09-17T03:53:48.265Z,1003.7
2017-09-17T03:54:49.745Z,1003.7
2017-09-17T03:55:51.147Z,1003.8
2017-09-17T03:56:52.626Z,1003.8
2017-09-17T03:57:54.024Z,1003.9
2017-09-17T03:58:55.508Z,1003.9
2017-09-17T03:59:56.915Z,1003.9
2017-09-17T04:00:58.391Z,1004.1
2017-09-17T04:01:59.801Z,1004.0
2017-09-17T04:03:01.202Z,1004.2
2017-09-17T04:04:02.710Z,1004.3
2017-09-17T04:05:04.108Z,1004.3
2017-09-17T04:06:05.504Z,1004.4
2017-09-17T04:07:06.929Z,1004.4
2017-09-17T04:08:08.335Z,1004.4
2017-09-17T04:09:09.731Z,1004.5
2017-09-17T04:10:11.146Z,1004.5
2017-09-17T04:11:12.544Z,1004.5
2017-09-17T04:12:14.026Z,1004.5
2017-09-17T04:13:15.425Z,1004.5
2017-09-17T04:14:16.827Z,1004.5
2017-09-17T04:15:18.246Z,1004.6
2017-09-17T04:16:19.643Z,1004.5
2017-09-17T04:17:21.047Z,1004.6
2017-09-17T04:18:22.462Z,1004.5
2017-09-17T04:19:23.860Z,1004.5
2017-09-17T04:20:25.351Z,1004.5
2017-09-17T04:21:26.742Z,1004.5
2017-09-17T04:22:28.242Z,1004.5
2017-09-17T04:23:29.643Z,1004.5
2017-09-17T04:24:31.105Z,1004.5
2017-09-17T04:25:32.503Z,1004.5
2017-09-17T04:26:33.987Z,1004.4
2017-09-17T04:27:35.386Z,1004.4
2017-09-17T04:28:36.871Z,1004.4
2017-09-17T04:29:38.273Z,1004.4
2017-09-17T04:30:39.747Z,1004.4
2017-09-17T04:31:41.152Z,1004.4
2017-09-17T04:32:42.627Z,1004.4
2017-09-17T04:33:44.023Z,1004.4
2017-09-17T04:34:45.510Z,1004.4
2017-09-17T04:35:46.908Z,1004.4
2017-09-17T04:36:48.389Z,1004.5
2017-09-17T04:37:49.789Z,1004.5
2017-09-17T04:38:51.189Z,1004.5
2017-09-17T04:39:52.608Z,1004.5
2017-09-17T04:40:54.005Z,1004.5
2017-09-17T04:41:55.404Z,1004.6
2017-09-17T04:42:56.827Z,1004.6
2017-09-17T04:43:58.225Z,1004.6
2017-09-17T04:44:59.625Z,1004.7
2017-09-17T04:46:01.046Z,1004.7
2017-09-17T04:47:02.443Z,1004.7
2017-09-17T04:48:03.841Z,1004.6
2017-09-17T04:49:05.264Z,1004.6
2017-09-17T04:50:06.663Z,1004.6
2017-09-17T04:51:08.060Z,1004.6
2017-09-17T04:52:09.482Z,1004.6
2017-09-17T04:53:10.893Z,1004.6
2017-09-17T04:54:12.291Z,1004.6
2017-09-17T04:55:13.803Z,1004.6
2017-09-17T04:56:15.203Z,1004.6
2017-09-17T04:57:16.684Z,1004.6
2017-09-17T04:58:18.084Z,1004.6
2017-09-17T04:59:19.482Z,1004.6
2017-09-17T05:00:20.923Z,1004.7
2017-09-17T05:01:22.318Z,1004.6
2017-09-17T05:02:23.717Z,1004.6
2017-09-17T05:03:25.327Z,1004.6
2017-09-17T05:04:26.734Z,1004.6
2017-09-17T05:05:28.136Z,1004.6
2017-09-17T05:06:29.649Z,1004.7
2017-09-17T05:07:31.049Z,1004.7
2017-09-17T05:08:32.448Z,1004.7
2017-09-17T05:09:33.991Z,1004.8
2017-09-17T05:10:35.387Z,1004.9
2017-09-17T05:11:36.861Z,1004.9
2017-09-17T05:12:38.254Z,1005.0
2017-09-17T05:13:39.731Z,1005.0
2017-09-17T05:14:41.139Z,1005.0
2017-09-17T05:15:42.613Z,1005.0
2017-09-17T05:16:44.014Z,1005.0
2017-09-17T05:17:45.491Z,1005.0
2017-09-17T05:18:46.895Z,1005.2
2017-09-17T05:19:48.299Z,1005.2
2017-09-17T05:20:49.812Z,1005.3
2017-09-17T05:21:51.386Z,1005.3
2017-09-17T05:22:52.827Z,1005.3
2017-09-17T05:23:54.285Z,1005.4
2017-09-17T05:24:55.682Z,1005.4
2017-09-17T05:25:57.123Z,1005.4
2017-09-17T05:26:58.554Z,1005.4
2017-09-17T05:28:00.006Z,1005.5
2017-09-17T05:29:01.408Z,1005.6
2017-09-17T05:30:02.880Z,1005.6
2017-09-17T05:31:04.285Z,1005.6
2017-09-17T05:32:05.766Z,1005.7
2017-09-17T05:33:07.165Z,1005.7
2017-09-17T05:34:08.645Z,1005.7
2017-09-17T05:35:10.050Z,1005.8
2017-09-17T05:36:11.523Z,1005.8
2017-09-17T05:37:12.926Z,1005.8
2017-09-17T05:38:14.512Z,1005.9
2017-09-17T05:39:15.909Z,1006.0
2017-09-17T05:40:17.317Z,1006.1
2017-09-17T05:41:18.829Z,1006.1
2017-09-17T05:42:20.230Z,1006.1
2017-09-17T05:43:21.678Z,1006.2
2017-09-17T05:44:23.149Z,1006.1
2017-09-17T05:45:24.552Z,1006.2
2017-09-17T05:46:26.029Z,1006.3
2017-09-17T05:47:27.437Z,1006.3
2017-09-17T05:48:28.912Z,1006.3
2017-09-17T05:49:30.369Z,1006.3
2017-09-17T05:50:31.791Z,1006.3
2017-09-17T05:51:33.196Z,1006.4
2017-09-17T05:52:34.674Z,1006.5
2017-09-17T05:53:36.073Z,1006.5
2017-09-17T05:54:37.472Z,1006.6
2017-09-17T05:55:38.891Z,1006.6
2017-09-17T05:56:40.292Z,1006.7
2017-09-17T05:57:41.692Z,1006.7
2017-09-17T05:58:43.112Z,1006.7
2017-09-17T05:59:44.513Z,1006.8
2017-09-17T06:00:45.991Z,1006.8
2017-09-17T06:01:47.398Z,1006.9
2017-09-17T06:02:48.869Z,1006.8
2017-09-17T06:03:50.274Z,1006.9
2017-09-17T06:04:51.751Z,1006.8
2017-09-17T06:05:53.190Z,1006.8
2017-09-17T06:06:54.632Z,1006.8
2017-09-17T06:07:56.036Z,1006.8
2017-09-17T06:08:57.530Z,1006.8
2017-09-17T06:09:58.925Z,1006.8
2017-09-17T06:11:00.394Z,1006.8
2017-09-17T06:12:01.822Z,1006.8
2017-09-17T06:13:03.274Z,1006.8
2017-09-17T06:14:04.673Z,1006.9
2017-09-17T06:15:06.155Z,1006.8
2017-09-17T06:16:07.561Z,1006.9
2017-09-17T06:17:09.043Z,1007.0
2017-09-17T06:18:10.457Z,1006.9
2017-09-17T06:19:11.915Z,1007.0
2017-09-17T06:20:13.319Z,1007.0
2017-09-17T06:21:14.799Z,1007.0
2017-09-17T06:22:16.198Z,1007.1
2017-09-17T06:23:17.676Z,1007.0
2017-09-17T06:24:19.077Z,1007.1
2017-09-17T06:25:20.562Z,1007.1
2017-09-17T06:26:21.973Z,1007.1
2017-09-17T06:27:23.447Z,1007.2
2017-09-17T06:28:24.849Z,1007.4
2017-09-17T06:29:26.323Z,1007.5
2017-09-17T06:30:27.722Z,1007.7
2017-09-17T06:31:29.204Z,1007.8
2017-09-17T06:32:30.605Z,1007.9
2017-09-17T06:33:32.009Z,1008.1
2017-09-17T06:34:33.522Z,1008.2
2017-09-17T06:35:34.935Z,1008.4
2017-09-17T06:36:36.332Z,1008.5
2017-09-17T06:37:37.846Z,1008.7
2017-09-17T06:38:39.252Z,1008.8
2017-09-17T06:39:40.677Z,1009.1
2017-09-17T06:40:42.166Z,1009.3
2017-09-17T06:41:43.575Z,1009.4
2017-09-17T06:42:45.052Z,1009.7
2017-09-17T06:43:46.458Z,1009.9
2017-09-17T06:44:47.926Z,1010.2
2017-09-17T06:45:49.330Z,1010.3
2017-09-17T06:46:50.816Z,1010.4
2017-09-17T06:47:52.223Z,1010.4
2017-09-17T06:48:53.687Z,1010.6
2017-09-17T06:49:55.090Z,1010.7
2017-09-17T06:50:56.573Z,1010.9
2017-09-17T06:51:57.979Z,1011.0
2017-09-17T06:52:59.454Z,1011.1
2017-09-17T06:54:00.863Z,1011.3
2017-09-17T06:55:02.277Z,1011.4
2017-09-17T06:56:03.769Z,1011.5
2017-09-17T06:57:05.173Z,1011.7
2017-09-17T06:58:06.576Z,1011.7
2017-09-17T06:59:08.106Z,1011.8
2017-09-17T07:00:09.960Z,1011.9
2017-09-17T07:01:11.362Z,1012.0
2017-09-17T07:02:12.817Z,1012.1
2017-09-17T07:03:14.223Z,1012.2
2017-09-17T07:04:15.704Z,1012.4
2017-09-17T07:05:17.108Z,1012.5
2017-09-17T07:06:18.512Z,1012.6
2017-09-17T07:07:20.022Z,1012.7
2017-09-17T07:08:21.429Z,1012.9
2017-09-17T07:09:22.833Z,1012.9
2017-09-17T07:10:24.342Z,1013.0
2017-09-17T07:11:25.747Z,1013.1
2017-09-17T07:12:27.151Z,1013.2
2017-09-17T07:13:28.662Z,1013.2
2017-09-17T07:14:30.069Z,1013.3
2017-09-17T07:15:31.484Z,1013.4
2017-09-17T07:16:32.987Z,1013.4
2017-09-17T07:17:34.392Z,1013.4
2017-09-17T07:18:35.867Z,1013.5
2017-09-17T07:19:37.268Z,1013.7
2017-09-17T07:20:38.746Z,1013.7
2017-09-17T07:21:40.158Z,1013.9
2017-09-17T07:22:41.628Z,1014.1
2017-09-17T07:23:43.048Z,1014.3
2017-09-17T07:24:44.518Z,1014.3
2017-09-17T07:25:45.923Z,1014.6
2017-09-17T07:26:47.418Z,1014.7
2017-09-17T07:27:48.824Z,1014.8
2017-09-17T07:28:50.273Z,1014.9
2017-09-17T07:29:51.684Z,1015.0
2017-09-17T07:30:53.118Z,1015.1
2017-09-17T07:31:54.607Z,1015.1
2017-09-17T07:32:56.016Z,1015.2
2017-09-17T07:33:57.419Z,1015.3
2017-09-17T07:34:58.935Z,1015.4
2017-09-17T07:36:00.343Z,1015.4
2017-09-17T07:37:01.749Z,1015.6
2017-09-17T07:38:03.236Z,1015.7
2017-09-17T07:39:04.639Z,1015.8
2017-09-17T07:40:06.042Z,1015.9
2017-09-17T07:41:07.557Z,1016.0
2017-09-17T07:42:08.964Z,1016.1
2017-09-17T07:43:10.436Z,1016.2
2017-09-17T07:44:11.841Z,1016.3
2017-09-17T07:45:13.316Z,1016.4
2017-09-17T07:46:14.744Z,1016.5
2017-09-17T07:47:16.197Z,1016.7
2017-09-17T07:48:17.606Z,1016.9
2017-09-17T07:49:19.089Z,1017.1
2017-09-17T07:50:20.489Z,1017.2
2017-09-17T07:51:21.959Z,1017.4
2017-09-17T07:52:23.371Z,1017.5
2017-09-17T07:53:24.838Z,1017.5
2017-09-17T07:54:26.242Z,1017.6
2017-09-17T07:55:27.825Z,1017.7
2017-09-17T07:56:29.232Z,1017.8
2017-09-17T07:57:30.950Z,1017.9
2017-09-17T07:58:32.366Z,1018.1
2017-09-17T07:59:33.998Z,1018.1
2017-09-17T08:00:35.406Z,1018.3
2017-09-17T08:01:36.810Z,1018.4
2017-09-17T08:02:38.520Z,1018.5
2017-09-17T08:03:39.928Z,1018.7
2017-09-17T08:04:41.333Z,1018.8
2017-09-17T08:05:43.063Z,1019.0
2017-09-17T08:06:44.474Z,1019.1
2017-09-17T08:07:45.881Z,1019.3
2017-09-17T08:08:47.600Z,1019.5
2017-09-17T08:09:49.009Z,1019.6
2017-09-17T08:10:50.420Z,1019.6
2017-09-17T08:11:52.100Z,1019.8
2017-09-17T08:12:53.507Z,1019.9
2017-09-17T08:13:54.912Z,1020.1
2017-09-17T08:14:56.624Z,1020.3
2017-09-17T08:15:58.033Z,1020.5
2017-09-17T08:16:59.434Z,1020.6
2017-09-17T08:18:01.152Z,1020.8
2017-09-17T08:19:02.564Z,1021.1
2017-09-17T08:20:03.970Z,1021.3
2017-09-17T08:21:05.673Z,1021.5
2017-09-17T08:22:07.081Z,1021.8
2017-09-17T08:23:08.765Z,1022.1
2017-09-17T08:24:10.175Z,1022.5
2017-09-17T08:25:11.644Z,1022.9
2017-09-17T08:26:13.050Z,1023.3
2017-09-17T08:27:14.459Z,1023.5
2017-09-17T08:28:15.867Z,1023.4
2017-09-17T08:29:17.407Z,1023.4
2017-09-17T08:30:18.812Z,1023.2
2017-09-17T08:31:20.218Z,1023.1
2017-09-17T08:32:21.939Z,1023.0
2017-09-17T08:33:23.345Z,1022.9
2017-09-17T08:34:24.753Z,1022.8
2017-09-17T08:35:26.459Z,1022.6
2017-09-17T08:36:27.866Z,1022.4
2017-09-17T08:37:29.271Z,1022.2
2017-09-17T08:38:30.983Z,1022.2
2017-09-17T08:39:32.388Z,1022.2
2017-09-17T08:40:34.066Z,1022.1
2017-09-17T08:41:35.478Z,1022.4
2017-09-17T08:42:37.158Z,1022.5
2017-09-17T08:43:38.561Z,1022.5
2017-09-17T08:44:40.238Z,1022.9
2017-09-17T08:45:41.648Z,1023.3
2017-09-17T08:46:43.087Z,1023.8
2017-09-17T08:47:44.766Z,1023.9
2017-09-17T08:48:46.175Z,1023.6
2017-09-17T08:49:47.583Z,1023.6
2017-09-17T08:50:49.291Z,1023.4
2017-09-17T08:51:50.696Z,1023.4
2017-09-17T08:52:52.099Z,1023.2
2017-09-17T08:53:53.815Z,1023.1
2017-09-17T08:54:55.220Z,1023.0
2017-09-17T08:55:56.903Z,1022.9
2017-09-17T08:56:58.309Z,1022.8
2017-09-17T08:57:59.717Z,1022.8
2017-09-17T08:59:01.454Z,1022.8
2017-09-17T09:00:02.861Z,1022.7
2017-09-17T09:01:04.264Z,1022.7
2017-09-17T09:02:05.950Z,1022.8
2017-09-17T09:03:07.356Z,1022.7
2017-09-17T09:04:08.765Z,1022.7
2017-09-17T09:05:10.484Z,1022.8
2017-09-17T09:06:11.887Z,1022.9
2017-09-17T09:07:13.290Z,1023.0
2017-09-17T09:08:15.004Z,1023.1
2017-09-17T09:09:16.409Z,1023.3
2017-09-17T09:10:17.814Z,1023.6
2017-09-17T09:11:19.530Z,1024.0
2017-09-17T09:12:20.936Z,1024.5
2017-09-17T09:13:22.613Z,1025.2
2017-09-17T09:14:24.020Z,1025.9
2017-09-17T09:15:25.700Z,1026.5
2017-09-17T09:16:27.113Z,1026.8
2017-09-17T09:17:28.522Z,1027.1
2017-09-17T09:18:30.225Z,1027.4
2017-09-17T09:19:31.638Z,1028.0
2017-09-17T09:20:33.048Z,1029.0
2017-09-17T09:21:34.751Z,1030.2
2017-09-17T09:22:36.173Z,1031.5
2017-09-17T09:23:37.584Z,1032.9
2017-09-17T09:24:39.280Z,1034.1
2017-09-17T09:25:40.687Z,1035.2
2017-09-17T09:26:42.093Z,1036.0
2017-09-17T09:27:43.502Z,1036.8
2017-09-17T09:28:44.937Z,1037.8
2017-09-17T09:29:46.343Z,1038.7
2017-09-17T09:30:47.817Z,1039.6
2017-09-17T09:31:49.224Z,1040.5
2017-09-17T09:32:50.702Z,1041.4
2017-09-17T09:33:52.103Z,1042.2
2017-09-17T09:34:53.593Z,1042.9
2017-09-17T09:35:54.988Z,1043.5
2017-09-17T09:36:56.466Z,1044.1
2017-09-17T09:37:57.862Z,1044.7
2017-09-17T09:38:59.342Z,1045.3
2017-09-17T09:40:00.968Z,1045.8
2017-09-17T09:41:02.502Z,1046.3
2017-09-17T09:42:03.907Z,1046.7
2017-09-17T09:43:05.406Z,1047.1
2017-09-17T09:44:06.811Z,1047.2
2017-09-17T09:45:08.289Z,1047.3
2017-09-17T09:46:09.723Z,1047.5
2017-09-17T09:47:11.131Z,1047.6
2017-09-17T09:48:12.618Z,1047.6
2017-09-17T09:49:14.017Z,1047.8
2017-09-17T09:50:15.422Z,1048.2
2017-09-17T09:51:16.939Z,1048.3
2017-09-17T09:52:18.344Z,1048.4
2017-09-17T09:53:19.783Z,1048.4
2017-09-17T09:54:21.250Z,1048.4
2017-09-17T09:55:22.656Z,1048.6
2017-09-17T09:56:24.062Z,1049.0
2017-09-17T09:57:25.573Z,1049.2
2017-09-17T09:58:26.977Z,1049.1
2017-09-17T09:59:28.388Z,1049.3
2017-09-17T10:00:29.894Z,1049.0
2017-09-17T10:01:31.299Z,1048.1
2017-09-17T10:02:32.707Z,1047.8
2017-09-17T10:03:34.214Z,1047.4
2017-09-17T10:04:35.621Z,1045.4
2017-09-17T10:05:37.029Z,1044.5
2017-09-17T10:06:38.536Z,1044.2
2017-09-17T10:07:39.941Z,1045.0
2017-09-17T10:08:41.345Z,1044.8
2017-09-17T10:09:42.857Z,1045.3
2017-09-17T10:10:44.263Z,1043.9
2017-09-17T10:11:45.672Z,1043.9
2017-09-17T10:12:47.179Z,1045.3
2017-09-17T10:13:48.589Z,1045.4
2017-09-17T10:14:49.995Z,1046.6
2017-09-17T10:15:51.501Z,1047.5
2017-09-17T10:16:52.907Z,1048.2
2017-09-17T10:17:54.312Z,1049.0
2017-09-17T10:18:55.827Z,1049.9
2017-09-17T10:19:57.233Z,1050.8
2017-09-17T10:20:58.721Z,1051.9
2017-09-17T10:22:00.133Z,1053.0
2017-09-17T10:23:01.548Z,1053.2
2017-09-17T10:24:03.037Z,1054.2
2017-09-17T10:25:04.445Z,1055.1
2017-09-17T10:26:05.858Z,1055.7
2017-09-17T10:27:07.340Z,1056.7
2017-09-17T10:28:08.760Z,1057.8
2017-09-17T10:29:10.184Z,1058.6
2017-09-17T10:30:11.675Z,1059.1
2017-09-17T10:31:13.103Z,1059.7
2017-09-17T10:32:14.494Z,1057.6
2017-09-17T10:33:17.009Z,1055.0
2017-09-17T10:34:18.415Z,1052.5
2017-09-17T10:35:19.844Z,1051.1
2017-09-17T10:36:21.348Z,1048.6
2017-09-17T10:37:22.753Z,1048.0
2017-09-17T10:38:24.170Z,1047.4
2017-09-17T10:39:25.654Z,1048.3
2017-09-17T10:40:27.061Z,1049.8
2017-09-17T10:41:28.470Z,1050.7
2017-09-17T10:42:29.969Z,1050.3
2017-09-17T10:43:31.382Z,1049.2
2017-09-17T10:44:32.791Z,1046.7
2017-09-17T10:45:34.292Z,1044.5
2017-09-17T10:46:35.697Z,1042.4
2017-09-17T10:47:37.104Z,1040.6
2017-09-17T10:48:38.614Z,1039.1
2017-09-17T10:49:40.023Z,1038.9
2017-09-17T10:50:41.495Z,1037.6
2017-09-17T10:51:42.906Z,1037.9
2017-09-17T10:52:44.377Z,1036.3
2017-09-17T10:53:45.781Z,1034.8
2017-09-17T10:54:47.256Z,1033.3
2017-09-17T10:55:48.661Z,1031.9
2017-09-17T10:56:50.135Z,1030.4
2017-09-17T10:57:51.540Z,1029.2
2017-09-17T10:58:52.949Z,1027.9
2017-09-17T10:59:54.461Z,1027.0
2017-09-17T11:00:55.862Z,1026.2
2017-09-17T11:01:57.266Z,1025.3
2017-09-17T11:02:58.779Z,1024.4
2017-09-17T11:04:00.186Z,1023.5
2017-09-17T11:05:01.661Z,1022.8
2017-09-17T11:06:03.115Z,1022.0
2017-09-17T11:07:04.541Z,1021.3
2017-09-17T11:08:05.943Z,1020.6
2017-09-17T11:09:07.350Z,1019.8
2017-09-17T11:10:08.861Z,1019.1
2017-09-17T11:11:10.267Z,1018.5
2017-09-17T11:12:11.674Z,1017.9
2017-09-17T11:13:13.181Z,1017.3
2017-09-17T11:14:14.585Z,1016.8
2017-09-17T11:15:15.990Z,1016.3
2017-09-17T11:16:17.503Z,1015.9
2017-09-17T11:17:18.906Z,1015.7
2017-09-17T11:18:20.336Z,1015.4
2017-09-17T11:19:21.822Z,1015.2
2017-09-17T11:20:23.231Z,1015.6
2017-09-17T11:21:24.735Z,1016.7
2017-09-17T11:22:26.140Z,1018.4
2017-09-17T11:23:27.546Z,1020.1
2017-09-17T11:24:29.029Z,1021.9
2017-09-17T11:25:30.434Z,1023.0
2017-09-17T11:26:31.838Z,1023.8
2017-09-17T11:27:33.348Z,1023.9
2017-09-17T11:28:34.752Z,1023.8
2017-09-17T11:29:36.159Z,1023.2
2017-09-17T11:30:37.669Z,1023.1
2017-09-17T11:31:39.072Z,1023.3
2017-09-17T11:32:40.478Z,1022.8
2017-09-17T11:33:41.989Z,1022.3
2017-09-17T11:34:43.397Z,1021.8
2017-09-17T11:35:44.896Z,1021.5
2017-09-17T11:36:46.301Z,1021.1
2017-09-17T11:37:47.751Z,1020.7
2017-09-17T11:38:49.156Z,1020.2
2017-09-17T11:39:50.632Z,1019.6
2017-09-17T11:40:52.036Z,1019.0
2017-09-17T11:41:53.517Z,1018.4
2017-09-17T11:42:54.919Z,1017.9
2017-09-17T11:43:56.392Z,1017.6
2017-09-17T11:44:57.796Z,1017.6
2017-09-17T11:45:59.273Z,1017.6
2017-09-17T11:47:00.678Z,1017.6
2017-09-17T11:48:02.155Z,1018.0
2017-09-17T11:49:03.559Z,1018.8
2017-09-17T11:50:06.059Z,1018.9
2017-09-17T11:51:07.463Z,1018.6
2017-09-17T11:52:08.941Z,1018.4
2017-09-17T11:53:10.344Z,1018.3
2017-09-17T11:54:11.748Z,1018.2
2017-09-17T11:55:13.160Z,1018.1
2017-09-17T11:56:14.600Z,1018.3
2017-09-17T11:57:16.008Z,1018.1
2017-09-17T11:58:17.415Z,1017.7
2017-09-17T11:59:18.934Z,1017.2
2017-09-17T12:00:20.344Z,1016.7
2017-09-17T12:01:21.765Z,1016.3
2017-09-17T12:02:23.245Z,1015.8
2017-09-17T12:03:24.644Z,1015.4
2017-09-17T12:04:26.051Z,1014.9
2017-09-17T12:05:27.575Z,1014.4
2017-09-17T12:06:28.979Z,1013.9
2017-09-17T12:07:30.441Z,1013.3
2017-09-17T12:08:31.846Z,1012.7
2017-09-17T12:09:33.321Z,1012.2
2017-09-17T12:10:34.727Z,1011.7
2017-09-17T12:11:36.205Z,1011.4
2017-09-17T12:12:37.611Z,1011.0
2017-09-17T12:13:39.085Z,1010.7
2017-09-17T12:14:40.493Z,1010.4
2017-09-17T12:15:41.911Z,1010.1
2017-09-17T12:16:43.406Z,1009.9
2017-09-17T12:17:44.815Z,1009.6
2017-09-17T12:18:46.230Z,1009.4
2017-09-17T12:19:47.729Z,1009.1
2017-09-17T12:20:49.136Z,1009.0
2017-09-17T12:21:50.615Z,1008.8
2017-09-17T12:22:52.010Z,1008.6
2017-09-17T12:23:53.496Z,1008.4
2017-09-17T12:24:54.894Z,1008.3
2017-09-17T12:25:57.407Z,1008.1
2017-09-17T12:26:58.811Z,1007.9
2017-09-17T12:28:00.274Z,1007.6
2017-09-17T12:29:01.702Z,1007.5
2017-09-17T12:30:03.154Z,1007.4
2017-09-17T12:31:04.562Z,1007.3
2017-09-17T12:32:06.034Z,1007.2
2017-09-17T12:33:07.437Z,1007.2
2017-09-17T12:34:08.916Z,1007.4
2017-09-17T12:35:10.345Z,1007.7
2017-09-17T12:36:11.764Z,1007.9
2017-09-17T12:37:13.248Z,1008.2
2017-09-17T12:38:14.654Z,1008.5
2017-09-17T12:39:16.062Z,1008.7
2017-09-17T12:40:17.556Z,1009.1
2017-09-17T12:41:18.966Z,1009.6
2017-09-17T12:42:20.441Z,1009.9
2017-09-17T12:43:21.846Z,1010.1
2017-09-17T12:44:23.255Z,1010.4
2017-09-17T12:45:24.763Z,1010.7
2017-09-17T12:46:26.166Z,1010.8